Time;durP1;ratioP1;P1;durP2;ratioP2;P2;SDS_P1;SDS_P2;PMS_P1;PMS_P2;Temp;Humidity;BMP_temperature;BMP_pressure;BME280_temperature;BME280_humidity;BME280_pressure;Samples;Min_cycle;Max_cycle;Signal;HPM_P1;HPM_P2
2022/07/28 00:01:19;;;;;;;8.53;2.90;;;21.20;55.10;;;;;;5048906;28;20205;-95
2022/07/28 00:03:53;;;;;;;8.50;1.83;;;21.20;55.20;;;;;;5050496;28;20208;-95
2022/07/28 00:06:21;;;;;;;5.70;2.20;;;21.10;55.20;;;;;;5062177;28;20208;-96
2022/07/28 00:08:59;;;;;;;7.13;2.03;;;21.10;55.20;;;;;;5062800;28;20208;-96
2022/07/28 00:11:29;;;;;;;3.87;1.47;;;21.10;55.70;;;;;;5065819;28;20727;-96
2022/07/28 00:13:57;;;;;;;5.97;1.97;;;21.20;55.50;;;;;;5056573;28;20247;-96
2022/07/28 00:16:27;;;;;;;4.70;1.70;;;21.10;55.30;;;;;;5046125;28;20669;-96
2022/07/28 00:18:58;;;;;;;7.63;2.50;;;21.10;55.60;;;;;;5049051;28;20205;-95
2022/07/28 00:21:29;;;;;;;5.80;1.90;;;21.10;55.70;;;;;;5063900;28;20200;-95
2022/07/28 00:23:59;;;;;;;7.70;2.43;;;21.10;55.70;;;;;;5069032;28;20220;-94
2022/07/28 00:26:28;;;;;;;8.33;2.13;;;21.10;55.70;;;;;;5063042;28;20211;-96
2022/07/28 00:28:58;;;;;;;4.47;1.80;;;21.10;55.80;;;;;;5062768;28;20254;-96
2022/07/28 00:31:28;;;;;;;7.83;2.17;;;21.10;56.00;;;;;;5062947;28;20200;-95
2022/07/28 00:34:05;;;;;;;10.40;3.33;;;21.10;55.90;;;;;;5063832;28;20248;-96
2022/07/28 00:36:32;;;;;;;7.63;3.07;;;21.10;56.20;;;;;;5065155;28;20199;-96
2022/07/28 00:39:03;;;;;;;6.83;2.40;;;21.10;55.90;;;;;;5064670;28;20208;-96
2022/07/28 00:41:32;;;;;;;6.80;2.17;;;21.10;56.10;;;;;;5063356;28;20196;-96
2022/07/28 00:44:04;;;;;;;5.77;2.23;;;21.00;56.10;;;;;;5061962;28;20206;-96
2022/07/28 00:46:32;;;;;;;6.43;2.23;;;21.00;56.00;;;;;;5067555;28;20698;-95
2022/07/28 00:49:00;;;;;;;10.00;3.03;;;21.00;56.00;;;;;;5061911;28;20204;-96
2022/07/28 00:51:37;;;;;;;10.30;3.30;;;21.00;56.20;;;;;;5065207;28;20205;-96
2022/07/28 00:54:05;;;;;;;4.43;1.90;;;20.90;56.40;;;;;;5064316;28;20216;-94
2022/07/28 00:59:26;;;;;;;3.77;1.60;;;20.90;56.40;;;;;;5048137;28;20599;-96
2022/07/28 01:01:56;;;;;;;4.90;2.10;;;20.90;56.40;;;;;;5061650;28;20268;-95
2022/07/28 01:04:26;;;;;;;6.50;2.43;;;20.90;56.40;;;;;;5062605;28;20193;-94
2022/07/28 01:07:12;;;;;;;5.37;1.87;;;20.90;56.40;;;;;;5065620;28;20262;-96
2022/07/28 01:09:56;;;;;;;9.33;2.77;;;20.80;56.40;;;;;;5065161;28;20203;-96
2022/07/28 01:12:49;;;;;;;7.37;2.73;;;20.80;56.70;;;;;;5064390;28;20224;-96
2022/07/28 01:15:26;;;;;;;4.83;1.83;;;20.70;56.70;;;;;;5064198;28;20231;-95
2022/07/28 01:18:03;;;;;;;9.67;3.17;;;20.70;56.60;;;;;;5062863;28;20506;-96
2022/07/28 01:20:39;;;;;;;7.90;2.50;;;20.70;56.70;;;;;;5064210;28;20539;-93
2022/07/28 01:23:39;;;;;;;5.33;2.07;;;20.60;56.60;;;;;;5060292;28;20204;-93
2022/07/28 01:26:28;;;;;;;7.73;2.33;;;20.60;57.00;;;;;;5063142;28;20570;-95
2022/07/28 01:29:26;;;;;;;4.73;2.00;;;20.60;56.90;;;;;;5053144;28;20254;-95
2022/07/28 01:32:01;;;;;;;6.23;2.33;;;20.60;57.10;;;;;;5055598;28;20608;-96
2022/07/28 01:34:33;;;;;;;7.80;2.57;;;20.50;56.80;;;;;;5055642;28;20227;-96
2022/07/28 01:37:07;;;;;;;10.40;3.07;;;20.50;56.70;;;;;;5062912;28;20211;-96
2022/07/28 01:39:39;;;;;;;11.13;3.20;;;20.40;56.70;;;;;;5062683;28;20208;-95
2022/07/28 01:42:10;;;;;;;5.63;2.17;;;20.40;56.60;;;;;;5046599;28;20208;-96
2022/07/28 01:44:46;;;;;;;5.50;2.13;;;20.40;56.80;;;;;;5048471;28;20204;-96
2022/07/28 01:47:20;;;;;;;6.70;2.53;;;20.40;57.20;;;;;;5058692;28;20218;-95
2022/07/28 01:49:54;;;;;;;7.17;2.50;;;20.40;57.00;;;;;;5061276;28;20234;-95
2022/07/28 01:52:25;;;;;;;6.67;2.73;;;20.30;57.00;;;;;;5064524;28;20682;-95
2022/07/28 01:54:56;;;;;;;6.73;2.50;;;20.30;57.00;;;;;;5060134;28;20228;-96
2022/07/28 01:57:25;;;;;;;10.33;3.60;;;20.30;56.90;;;;;;5051805;28;20212;-95
2022/07/28 01:59:57;;;;;;;6.07;2.17;;;20.20;56.90;;;;;;5062027;28;20207;-96
2022/07/28 02:02:29;;;;;;;6.17;2.23;;;20.20;57.10;;;;;;5044200;28;20227;-96
2022/07/28 02:04:58;;;;;;;10.27;2.80;;;20.20;57.10;;;;;;5048583;28;20250;-95
2022/07/28 02:07:27;;;;;;;5.63;2.30;;;20.10;57.00;;;;;;5041324;28;20256;-94
2022/07/28 02:09:58;;;;;;;7.17;2.50;;;20.10;57.00;;;;;;5057544;28;20234;-94
2022/07/28 02:12:28;;;;;;;8.97;3.20;;;20.10;57.00;;;;;;5057624;28;20235;-95
2022/07/28 02:14:58;;;;;;;5.20;2.23;;;20.10;57.20;;;;;;5058553;28;20227;-95
2022/07/28 02:17:35;;;;;;;8.00;2.47;;;20.10;57.20;;;;;;5052742;28;20214;-93
2022/07/28 02:20:08;;;;;;;4.10;1.83;;;20.00;57.40;;;;;;5061528;28;20211;-95
2022/07/28 02:22:38;;;;;;;6.03;2.73;;;20.00;57.20;;;;;;5056866;28;20958;-94
2022/07/28 02:25:07;;;;;;;7.20;2.90;;;20.00;57.20;;;;;;5061724;28;20350;-94
2022/07/28 02:27:37;;;;;;;5.67;2.63;;;20.00;57.20;;;;;;5060604;28;20230;-95
2022/07/28 02:30:10;;;;;;;6.17;2.30;;;19.90;57.30;;;;;;5061922;28;20198;-95
2022/07/28 02:32:47;;;;;;;6.03;2.80;;;19.90;57.30;;;;;;5060688;28;20208;-96
2022/07/28 02:35:22;;;;;;;6.43;2.30;;;19.90;57.40;;;;;;5062804;28;20244;-95
2022/07/28 02:37:56;;;;;;;7.27;3.00;;;19.80;57.40;;;;;;5061067;28;20210;-95
2022/07/28 02:40:26;;;;;;;6.37;2.83;;;19.90;57.50;;;;;;5053122;28;20200;-94
2022/07/28 02:42:56;;;;;;;6.57;2.47;;;19.80;57.30;;;;;;5057786;28;20209;-96
2022/07/28 02:45:27;;;;;;;6.63;3.10;;;19.80;57.40;;;;;;5052797;28;20207;-96
2022/07/28 02:48:03;;;;;;;10.43;3.27;;;19.70;57.50;;;;;;5051158;28;20204;-94
2022/07/28 02:50:31;;;;;;;4.53;2.27;;;19.70;57.60;;;;;;5045346;28;20200;-96
2022/07/28 02:53:01;;;;;;;8.27;2.37;;;19.70;57.40;;;;;;5049399;28;20253;-96
2022/07/28 02:55:31;;;;;;;7.50;2.80;;;19.60;57.50;;;;;;5059764;28;20334;-96
2022/07/28 02:58:06;;;;;;;11.30;3.20;;;19.60;57.50;;;;;;5056005;28;20602;-96
2022/07/28 03:00:34;;;;;;;7.70;2.97;;;19.60;57.70;;;;;;5048042;28;20699;-95
2022/07/28 03:03:05;;;;;;;9.77;3.67;;;19.60;57.50;;;;;;5058448;28;20208;-94
2022/07/28 03:05:40;;;;;;;13.27;4.57;;;19.60;57.70;;;;;;5047686;28;20254;-94
2022/07/28 03:08:08;;;;;;;5.57;2.50;;;19.50;57.70;;;;;;5048579;28;20211;-95
2022/07/28 03:10:37;;;;;;;6.87;2.57;;;19.50;57.50;;;;;;5052860;28;20274;-96
2022/07/28 03:13:11;;;;;;;6.93;2.77;;;19.50;57.70;;;;;;5041728;28;20302;-95
2022/07/28 03:15:41;;;;;;;7.97;2.97;;;19.40;57.80;;;;;;5045336;28;20226;-94
2022/07/28 03:18:11;;;;;;;7.63;2.70;;;19.40;57.70;;;;;;5048640;28;20196;-96
2022/07/28 03:20:44;;;;;;;9.53;2.90;;;19.40;57.80;;;;;;5050083;28;20197;-96
2022/07/28 03:23:12;;;;;;;7.50;3.27;;;19.30;57.80;;;;;;5047210;28;20214;-96
2022/07/28 03:25:44;;;;;;;8.40;3.37;;;19.30;57.80;;;;;;5062327;28;20219;-95
2022/07/28 03:28:18;;;;;;;7.90;3.27;;;19.30;57.80;;;;;;5064498;28;20203;-92
2022/07/28 03:30:53;;;;;;;13.77;4.17;;;19.20;57.80;;;;;;5061860;28;20245;-95
2022/07/28 03:33:24;;;;;;;6.97;2.93;;;19.20;57.90;;;;;;5060035;28;20200;-94
2022/07/28 03:35:55;;;;;;;8.40;3.23;;;19.20;57.90;;;;;;5055120;28;20227;-94
2022/07/28 03:38:28;;;;;;;5.57;2.70;;;19.10;57.80;;;;;;5058161;28;20230;-93
2022/07/28 03:40:57;;;;;;;8.83;3.73;;;19.10;57.90;;;;;;5049505;28;20264;-95
2022/07/28 03:43:27;;;;;;;7.07;2.83;;;19.10;57.90;;;;;;5057035;28;20202;-94
2022/07/28 03:45:55;;;;;;;4.37;2.07;;;19.00;57.90;;;;;;5053697;28;20639;-93
2022/07/28 03:48:33;;;;;;;9.27;4.00;;;19.10;58.00;;;;;;5056267;28;20211;-94
2022/07/28 03:51:01;;;;;;;6.80;2.67;;;19.00;58.20;;;;;;5057578;28;20287;-92
2022/07/28 03:53:29;;;;;;;7.60;2.97;;;18.90;58.00;;;;;;5051582;28;20200;-93
2022/07/28 03:56:02;;;;;;;9.00;3.23;;;18.90;58.10;;;;;;5049930;28;20266;-92
2022/07/28 03:58:31;;;;;;;12.27;3.70;;;18.90;58.20;;;;;;5058012;28;20234;-93
2022/07/28 04:01:04;;;;;;;7.33;3.20;;;18.80;58.20;;;;;;5058958;28;20199;-94
2022/07/28 04:03:33;;;;;;;10.87;3.60;;;18.80;58.40;;;;;;5057690;28;20207;-93
2022/07/28 04:06:06;;;;;;;11.70;3.53;;;18.80;58.30;;;;;;5060339;28;20681;-95
2022/07/28 04:08:34;;;;;;;10.97;3.83;;;18.70;58.40;;;;;;5056017;28;20280;-94
2022/07/28 04:11:02;;;;;;;9.73;3.37;;;18.80;58.30;;;;;;5056731;28;20218;-95
2022/07/28 04:13:35;;;;;;;8.53;3.17;;;18.70;58.40;;;;;;5049205;28;20648;-95
2022/07/28 04:16:05;;;;;;;6.07;2.73;;;18.70;58.50;;;;;;5063405;28;20237;-96
2022/07/28 04:18:41;;;;;;;5.90;3.17;;;18.60;58.40;;;;;;5061850;28;20287;-95
2022/07/28 04:21:10;;;;;;;9.97;3.97;;;18.60;58.50;;;;;;5062104;28;20202;-96
2022/07/28 04:23:38;;;;;;;6.33;2.77;;;18.60;58.60;;;;;;5051586;28;20213;-96
2022/07/28 04:26:11;;;;;;;7.30;2.90;;;18.60;58.50;;;;;;5063615;28;20214;-95
2022/07/28 04:28:41;;;;;;;7.43;2.83;;;18.50;58.80;;;;;;5058013;28;20574;-96
2022/07/28 04:31:14;;;;;;;10.60;3.97;;;18.40;58.70;;;;;;5058174;28;20277;-96
2022/07/28 04:33:47;;;;;;;8.80;3.00;;;18.40;58.70;;;;;;5056344;28;20203;-95
2022/07/28 04:36:16;;;;;;;7.40;3.23;;;18.40;58.70;;;;;;5063609;28;20209;-96
2022/07/28 04:38:48;;;;;;;10.13;2.97;;;18.40;58.70;;;;;;5064419;28;20221;-93
2022/07/28 04:41:15;;;;;;;8.70;3.33;;;18.40;58.90;;;;;;5064618;28;20205;-96
2022/07/28 04:43:45;;;;;;;8.63;3.50;;;18.30;58.80;;;;;;5065615;28;20214;-95
2022/07/28 04:46:15;;;;;;;11.27;3.83;;;18.30;59.10;;;;;;5061434;28;20203;-96
2022/07/28 04:48:46;;;;;;;14.77;4.60;;;18.30;59.20;;;;;;5052250;28;20250;-95
2022/07/28 04:51:20;;;;;;;6.53;3.27;;;18.30;59.30;;;;;;5053398;28;20208;-96
2022/07/28 04:53:52;;;;;;;7.17;2.70;;;18.30;59.40;;;;;;5053602;28;20206;-96
2022/07/28 04:56:27;;;;;;;4.43;2.53;;;18.30;59.30;;;;;;5057558;28;20211;-94
2022/07/28 04:59:00;;;;;;;8.80;2.70;;;18.30;59.60;;;;;;5061743;28;20202;-96
2022/07/28 05:01:34;;;;;;;15.17;4.37;;;18.30;59.70;;;;;;5065663;28;20214;-95
2022/07/28 05:04:06;;;;;;;18.80;6.37;;;18.30;59.80;;;;;;5046807;28;20237;-95
2022/07/28 05:06:35;;;;;;;8.83;3.53;;;18.30;59.60;;;;;;5059178;28;20195;-95
2022/07/28 05:09:02;;;;;;;13.07;4.77;;;18.30;59.60;;;;;;5056368;28;20206;-94
2022/07/28 05:11:33;;;;;;;6.97;2.60;;;18.30;59.60;;;;;;5055563;28;20221;-96
2022/07/28 05:14:03;;;;;;;4.70;2.40;;;18.40;59.80;;;;;;5041953;28;20257;-95
2022/07/28 05:16:32;;;;;;;9.70;3.53;;;18.40;59.80;;;;;;5044561;28;20665;-96
2022/07/28 05:19:05;;;;;;;6.93;2.93;;;18.40;59.80;;;;;;5063190;28;20224;-95
2022/07/28 05:21:33;;;;;;;15.80;5.27;;;18.40;59.90;;;;;;5064994;28;20215;-96
2022/07/28 05:24:07;;;;;;;6.83;2.33;;;18.40;59.60;;;;;;5058355;28;20218;-94
2022/07/28 05:26:34;;;;;;;9.17;3.10;;;18.50;59.80;;;;;;5061026;28;20293;-96
2022/07/28 05:29:02;;;;;;;6.87;2.63;;;18.50;59.60;;;;;;5046436;28;20207;-95
2022/07/28 05:31:32;;;;;;;4.83;2.63;;;18.60;59.70;;;;;;5059558;28;20244;-96
2022/07/28 05:34:03;;;;;;;7.60;3.27;;;18.60;60.30;;;;;;5062648;28;20207;-95
2022/07/28 05:36:31;;;;;;;8.23;3.67;;;18.60;59.70;;;;;;5049571;28;20228;-96
2022/07/28 05:38:58;;;;;;;7.90;3.40;;;18.60;59.50;;;;;;5042135;28;20231;-93
2022/07/28 05:41:25;;;;;;;7.00;3.10;;;18.70;59.60;;;;;;5048920;28;20213;-93
2022/07/28 05:43:53;;;;;;;6.63;3.17;;;18.70;59.50;;;;;;5061022;28;20236;-96
2022/07/28 05:46:22;;;;;;;9.03;3.53;;;18.70;59.50;;;;;;5059220;28;20220;-96
2022/07/28 05:48:50;;;;;;;8.90;3.60;;;18.80;59.60;;;;;;5064819;28;20199;-96
2022/07/28 05:51:30;;;;;;;6.30;2.93;;;18.90;59.60;;;;;;5063269;28;20266;-95
2022/07/28 05:54:03;;;;;;;6.53;3.17;;;18.80;59.50;;;;;;5062808;28;20249;-94
2022/07/28 05:56:31;;;;;;;7.47;2.90;;;18.90;59.40;;;;;;5059652;28;20207;-96
2022/07/28 05:59:00;;;;;;;6.33;2.93;;;18.90;59.40;;;;;;5058053;28;20274;-94
2022/07/28 06:01:28;;;;;;;11.13;4.73;;;19.00;59.40;;;;;;5060491;28;20199;-95
2022/07/28 06:03:56;;;;;;;13.33;5.17;;;18.90;59.20;;;;;;5062122;28;20305;-95
2022/07/28 06:06:32;;;;;;;5.93;2.90;;;19.00;59.20;;;;;;5062397;28;20207;-96
2022/07/28 06:09:07;;;;;;;10.57;3.47;;;19.00;59.30;;;;;;5063920;28;20218;-95
2022/07/28 06:11:36;;;;;;;9.37;4.00;;;19.10;59.30;;;;;;5063016;28;20328;-94
2022/07/28 06:14:04;;;;;;;5.93;2.60;;;19.10;59.30;;;;;;5060410;28;20203;-95
2022/07/28 06:16:38;;;;;;;8.77;3.57;;;19.10;59.30;;;;;;5061696;28;20246;-93
2022/07/28 06:19:09;;;;;;;9.57;3.67;;;19.20;59.20;;;;;;5059464;28;20194;-94
2022/07/28 06:21:42;;;;;;;13.33;3.47;;;19.20;59.00;;;;;;5064169;28;20601;-95
2022/07/28 06:24:10;;;;;;;10.70;4.27;;;19.20;59.10;;;;;;5062519;28;20198;-96
2022/07/28 06:26:38;;;;;;;13.10;4.63;;;19.30;59.20;;;;;;5060257;28;20224;-94
2022/07/28 06:29:07;;;;;;;12.00;3.90;;;19.30;59.10;;;;;;5056599;28;20286;-95
2022/07/28 06:31:35;;;;;;;14.30;4.60;;;19.40;59.00;;;;;;5059108;28;20191;-94
2022/07/28 06:34:02;;;;;;;8.67;4.03;;;19.40;58.80;;;;;;5060864;28;20212;-95
2022/07/28 06:36:30;;;;;;;7.23;3.20;;;19.40;58.80;;;;;;5065264;28;20227;-94
2022/07/28 06:39:01;;;;;;;10.20;4.13;;;19.50;58.90;;;;;;5062596;28;20187;-94
2022/07/28 06:41:32;;;;;;;7.53;3.30;;;19.60;59.00;;;;;;5047714;28;20315;-95
2022/07/28 06:44:02;;;;;;;6.43;2.63;;;19.60;58.90;;;;;;5066644;28;20204;-96
2022/07/28 06:46:30;;;;;;;6.77;3.00;;;19.70;58.90;;;;;;5063262;28;20223;-96
2022/07/28 06:49:00;;;;;;;12.57;4.60;;;19.70;58.70;;;;;;5065334;28;20565;-95
2022/07/28 06:51:29;;;;;;;10.17;3.77;;;19.80;58.80;;;;;;5062901;28;20264;-94
2022/07/28 06:53:59;;;;;;;9.10;4.07;;;19.80;58.60;;;;;;5063411;28;20245;-96
2022/07/28 06:56:27;;;;;;;7.97;2.97;;;19.80;58.60;;;;;;5061142;28;20232;-96
2022/07/28 06:58:58;;;;;;;8.20;3.67;;;19.90;58.70;;;;;;5062152;28;20210;-96
2022/07/28 07:01:32;;;;;;;8.37;3.27;;;20.00;58.60;;;;;;5064368;28;20204;-94
2022/07/28 07:04:01;;;;;;;8.23;3.53;;;20.00;58.60;;;;;;5062524;28;20199;-94
2022/07/28 07:06:32;;;;;;;13.73;4.73;;;20.10;58.40;;;;;;5063066;28;20204;-95
2022/07/28 07:09:02;;;;;;;9.43;4.23;;;20.20;58.40;;;;;;5064458;28;20208;-95
2022/07/28 07:11:32;;;;;;;12.50;4.67;;;20.20;58.40;;;;;;5058208;28;20204;-93
2022/07/28 07:14:01;;;;;;;7.13;3.37;;;20.30;58.40;;;;;;5056779;28;20231;-92
2022/07/28 07:16:29;;;;;;;8.97;4.33;;;20.30;58.40;;;;;;5059326;28;20223;-94
2022/07/28 07:18:59;;;;;;;11.23;4.47;;;20.40;58.10;;;;;;5063074;28;20216;-93
2022/07/28 07:21:26;;;;;;;11.17;4.73;;;20.50;58.20;;;;;;5063417;28;20282;-92
2022/07/28 07:23:54;;;;;;;10.73;3.87;;;20.60;58.10;;;;;;5070307;28;20223;-94
2022/07/28 07:26:25;;;;;;;8.23;3.50;;;20.60;57.90;;;;;;5073046;28;20221;-93
2022/07/28 07:28:59;;;;;;;8.00;3.50;;;20.70;58.00;;;;;;5077269;28;20210;-95
2022/07/28 07:31:29;;;;;;;9.10;3.60;;;20.70;58.00;;;;;;5072870;28;20262;-94
2022/07/28 07:33:56;;;;;;;7.87;2.83;;;20.80;58.00;;;;;;5066207;28;20200;-94
2022/07/28 07:36:26;;;;;;;7.47;3.40;;;20.90;58.00;;;;;;5065207;28;20749;-91
2022/07/28 07:38:54;;;;;;;10.30;3.23;;;20.90;57.90;;;;;;5064642;28;20264;-94
2022/07/28 07:41:25;;;;;;;5.60;2.77;;;21.00;57.60;;;;;;5065266;28;20254;-96
2022/07/28 07:44:25;;;;;;;8.63;2.50;;;21.10;57.60;;;;;;5067863;28;20200;-96
2022/07/28 07:50:00;;;;;;;6.97;2.87;;;21.20;56.90;;;;;;5059266;28;20231;-96
2022/07/28 07:52:27;;;;;;;12.57;3.60;;;21.30;57.20;;;;;;5058230;28;20199;-92
2022/07/28 07:55:01;;;;;;;8.97;3.00;;;21.40;57.20;;;;;;5051499;28;20200;-93
2022/07/28 07:57:30;;;;;;;6.13;2.80;;;21.40;56.70;;;;;;5047623;28;20894;-95
2022/07/28 07:59:59;;;;;;;5.77;2.63;;;21.50;57.00;;;;;;5059659;28;20203;-96
2022/07/28 08:02:38;;;;;;;8.00;3.23;;;21.60;56.90;;;;;;5053620;28;20228;-92
2022/07/28 08:05:08;;;;;;;8.17;3.30;;;21.60;56.80;;;;;;5043159;28;20739;-93
2022/07/28 08:07:35;;;;;;;9.33;3.90;;;21.70;56.70;;;;;;5047443;28;20227;-94
2022/07/28 08:10:09;;;;;;;8.07;3.27;;;21.80;56.90;;;;;;5058821;28;20298;-92
2022/07/28 08:12:38;;;;;;;6.93;2.70;;;21.80;57.30;;;;;;5061716;28;20261;-93
2022/07/28 08:15:28;;;;;;;9.93;4.03;;;21.90;56.90;;;;;;5057110;28;20216;-94
2022/07/28 08:17:56;;;;;;;11.00;4.13;;;22.00;56.70;;;;;;5053779;28;20675;-92
2022/07/28 08:20:23;;;;;;;8.13;2.67;;;22.10;56.20;;;;;;5057536;28;20640;-91
2022/07/28 08:23:28;;;;;;;10.33;4.37;;;22.20;56.20;;;;;;5056077;28;20741;-92
2022/07/28 08:25:56;;;;;;;5.50;2.93;;;22.20;56.00;;;;;;5030480;28;20204;-93
2022/07/28 08:28:29;;;;;;;6.93;3.50;;;22.40;55.80;;;;;;5054330;28;20198;-93
2022/07/28 08:31:00;;;;;;;7.07;3.33;;;22.40;55.80;;;;;;5043545;28;20203;-93
2022/07/28 08:33:36;;;;;;;9.50;4.20;;;22.50;55.80;;;;;;5048165;28;20198;-92
2022/07/28 08:36:04;;;;;;;8.33;3.43;;;22.60;56.00;;;;;;5036285;28;20201;-96
2022/07/28 08:38:32;;;;;;;8.30;3.50;;;22.70;55.60;;;;;;5034465;28;20649;-94
2022/07/28 08:41:03;;;;;;;5.27;2.63;;;22.70;55.30;;;;;;5035379;28;20230;-92
2022/07/28 08:43:37;;;;;;;8.57;3.50;;;22.80;55.10;;;;;;5054213;28;20245;-95
2022/07/28 08:46:11;;;;;;;5.57;2.57;;;22.90;54.70;;;;;;5053858;28;20198;-95
2022/07/28 08:48:41;;;;;;;8.20;3.87;;;23.00;54.50;;;;;;5053311;28;20209;-92
2022/07/28 08:54:23;;;;;;;6.53;2.57;;;23.20;54.50;;;;;;5053974;28;20207;-95
2022/07/28 08:56:58;;;;;;;6.77;2.67;;;23.30;54.40;;;;;;5049123;28;20788;-94
2022/07/28 08:59:28;;;;;;;5.93;2.93;;;23.40;54.80;;;;;;5035687;28;20238;-94
2022/07/28 09:02:01;;;;;;;6.03;3.50;;;23.60;54.80;;;;;;5044703;28;20296;-94
2022/07/28 09:04:33;;;;;;;12.27;5.30;;;23.70;54.10;;;;;;5055079;28;20610;-95
2022/07/28 09:07:19;;;;;;;5.27;3.00;;;23.80;54.30;;;;;;5046600;28;20215;-94
2022/07/28 09:09:56;;;;;;;11.13;3.50;;;24.00;53.60;;;;;;5044751;28;20231;-95
2022/07/28 09:12:24;;;;;;;7.60;3.40;;;24.10;53.50;;;;;;5043952;28;20590;-96
2022/07/28 09:14:58;;;;;;;3.80;2.23;;;24.20;53.70;;;;;;5054405;28;20603;-96
2022/07/28 09:17:27;;;;;;;12.80;5.10;;;24.20;53.00;;;;;;5054915;28;20217;-92
2022/07/28 09:19:54;;;;;;;7.10;3.60;;;24.30;53.70;;;;;;5054761;28;20671;-94
2022/07/28 09:22:21;;;;;;;8.47;3.67;;;24.40;53.80;;;;;;5052798;28;20200;-90
2022/07/28 09:24:48;;;;;;;9.37;4.13;;;24.50;52.70;;;;;;5052533;28;20660;-94
2022/07/28 09:27:16;;;;;;;7.40;3.17;;;24.60;52.60;;;;;;5049917;28;20227;-94
2022/07/28 09:29:47;;;;;;;7.57;2.47;;;24.80;52.40;;;;;;5051965;28;20238;-94
2022/07/28 09:32:19;;;;;;;7.53;3.20;;;24.80;52.40;;;;;;5062025;28;20261;-95
2022/07/28 09:34:50;;;;;;;11.10;4.87;;;24.90;52.40;;;;;;5053419;28;20299;-92
2022/07/28 09:37:18;;;;;;;8.10;3.03;;;25.10;51.60;;;;;;5054129;28;20289;-94
2022/07/28 09:39:47;;;;;;;6.40;3.03;;;25.20;52.10;;;;;;5050171;28;20319;-94
2022/07/28 09:42:14;;;;;;;8.47;3.53;;;25.30;51.40;;;;;;5062749;28;20185;-93
2022/07/28 09:44:43;;;;;;;6.33;2.87;;;25.40;51.00;;;;;;5071222;28;20767;-93
2022/07/28 09:47:31;;;;;;;9.23;4.30;;;25.40;50.00;;;;;;5059016;28;20203;-94
2022/07/28 09:50:08;;;;;;;7.37;2.70;;;25.50;49.70;;;;;;5035321;28;20685;-92
2022/07/28 09:52:38;;;;;;;5.43;2.83;;;25.60;50.00;;;;;;5057632;28;20222;-91
2022/07/28 09:55:07;;;;;;;6.80;3.00;;;25.60;50.60;;;;;;5059489;28;20254;-92
2022/07/28 09:57:36;;;;;;;9.53;3.80;;;25.70;50.50;;;;;;5054180;28;20310;-91
2022/07/28 10:00:09;;;;;;;7.40;3.50;;;25.70;50.30;;;;;;5041913;28;20205;-92
2022/07/28 10:02:37;;;;;;;8.00;3.07;;;25.80;49.90;;;;;;5042558;28;20247;-92
2022/07/28 10:05:08;;;;;;;6.27;2.83;;;26.00;49.50;;;;;;5042371;28;20208;-90
2022/07/28 10:07:48;;;;;;;7.87;3.97;;;26.10;49.80;;;;;;5032774;28;20231;-90
2022/07/28 10:10:22;;;;;;;5.70;2.47;;;26.20;48.00;;;;;;5034271;28;20559;-92
2022/07/28 10:12:49;;;;;;;7.73;3.33;;;26.40;48.90;;;;;;5034178;28;20201;-92
2022/07/28 10:18:09;;;;;;;6.57;3.00;;;26.70;49.10;;;;;;5030227;28;20225;-93
2022/07/28 10:20:39;;;;;;;6.77;3.03;;;26.90;49.10;;;;;;5041936;28;20582;-93
2022/07/28 10:23:10;;;;;;;4.73;2.40;;;27.10;48.60;;;;;;5034578;28;20200;-94
2022/07/28 10:25:40;;;;;;;5.60;2.70;;;27.20;47.70;;;;;;5040218;28;20196;-93
2022/07/28 10:28:11;;;;;;;8.17;3.40;;;27.40;47.70;;;;;;5050327;28;20200;-94
2022/07/28 10:30:40;;;;;;;8.37;3.10;;;27.50;46.50;;;;;;5050653;28;20200;-92
2022/07/28 10:33:14;;;;;;;5.90;3.17;;;27.70;45.90;;;;;;5046351;28;20203;-93
2022/07/28 10:35:47;;;;;;;6.57;3.13;;;27.80;46.70;;;;;;5047496;28;20261;-94
2022/07/28 10:38:20;;;;;;;5.93;2.87;;;27.90;46.10;;;;;;5045615;28;20248;-92
2022/07/28 10:40:48;;;;;;;6.33;2.87;;;28.00;46.30;;;;;;5032470;28;20209;-92
2022/07/28 10:43:15;;;;;;;6.17;3.10;;;28.00;46.90;;;;;;5049769;28;20215;-93
2022/07/28 10:45:46;;;;;;;9.83;4.27;;;28.10;46.60;;;;;;5053182;28;20694;-91
2022/07/28 10:48:21;;;;;;;8.17;3.20;;;28.20;46.50;;;;;;5050647;28;20300;-91
2022/07/28 10:50:51;;;;;;;7.53;3.23;;;28.30;45.80;;;;;;5037485;28;20199;-90
2022/07/28 10:53:29;;;;;;;7.10;2.87;;;28.30;46.00;;;;;;5051878;28;20200;-92
2022/07/28 10:56:03;;;;;;;6.47;3.00;;;28.30;45.00;;;;;;5044746;28;20605;-90
2022/07/28 10:58:43;;;;;;;6.83;3.13;;;28.40;45.10;;;;;;5032777;28;20235;-92
2022/07/28 11:01:12;;;;;;;5.70;3.13;;;28.40;44.60;;;;;;5041660;28;20203;-92
2022/07/28 11:03:42;;;;;;;7.03;3.43;;;28.30;45.20;;;;;;5046188;28;20215;-90
2022/07/28 11:06:29;;;;;;;10.53;3.50;;;28.30;45.70;;;;;;5045865;28;20199;-91
2022/07/28 11:08:58;;;;;;;5.87;2.50;;;28.20;44.40;;;;;;5049763;28;20267;-92
2022/07/28 11:11:44;;;;;;;7.03;3.23;;;28.20;44.90;;;;;;5049941;28;20265;-90
2022/07/28 11:14:34;;;;;;;6.73;2.50;;;28.20;44.00;;;;;;5034355;28;20848;-92
2022/07/28 11:17:20;;;;;;;5.53;2.97;;;28.10;44.30;;;;;;5035826;28;20680;-93
2022/07/28 11:19:52;;;;;;;10.50;4.47;;;28.00;44.60;;;;;;5034186;28;20208;-93
2022/07/28 11:22:28;;;;;;;6.93;3.37;;;28.00;44.80;;;;;;5031340;28;20232;-93
2022/07/28 11:25:22;;;;;;;7.63;3.53;;;27.90;44.70;;;;;;5041817;28;20199;-94
2022/07/28 11:28:04;;;;;;;6.67;3.30;;;27.90;44.50;;;;;;5026034;28;20254;-95
2022/07/28 11:30:57;;;;;;;12.77;4.87;;;27.80;44.80;;;;;;5069932;28;20195;-91
2022/07/28 11:33:28;;;;;;;7.03;3.63;;;27.80;44.90;;;;;;5062661;28;20211;-93
2022/07/28 11:35:59;;;;;;;6.73;2.93;;;27.70;45.40;;;;;;5060577;28;20200;-92
2022/07/28 11:38:28;;;;;;;6.23;2.53;;;27.70;45.40;;;;;;5055566;28;20234;-93
2022/07/28 11:40:57;;;;;;;4.53;2.57;;;27.60;44.90;;;;;;5049467;28;20219;-92
2022/07/28 11:43:37;;;;;;;11.27;4.40;;;27.50;44.30;;;;;;5051454;28;20636;-93
2022/07/28 11:46:33;;;;;;;5.70;3.13;;;27.50;44.60;;;;;;5037096;28;20580;-93
2022/07/28 11:49:27;;;;;;;4.90;2.77;;;27.40;44.60;;;;;;5042042;28;20728;-92
2022/07/28 11:52:36;;;;;;;5.70;2.63;;;27.40;44.70;;;;;;5042620;28;20227;-93
2022/07/28 11:55:08;;;;;;;5.13;2.37;;;27.30;45.00;;;;;;4991878;28;20206;-93
2022/07/28 11:57:42;;;;;;;7.50;3.23;;;27.30;45.50;;;;;;5024979;28;20232;-92
2022/07/28 12:00:10;;;;;;;13.50;4.73;;;27.20;45.50;;;;;;5031946;28;20295;-90
2022/07/28 12:02:40;;;;;;;9.07;3.53;;;27.20;45.90;;;;;;5033309;28;20292;-93
2022/07/28 12:05:11;;;;;;;8.67;3.77;;;27.20;45.50;;;;;;5050873;28;20211;-90
2022/07/28 12:07:47;;;;;;;5.97;3.10;;;27.10;45.70;;;;;;5056156;28;20215;-94
2022/07/28 12:10:33;;;;;;;5.60;2.97;;;27.10;45.60;;;;;;5054362;28;20439;-95
2022/07/28 12:13:03;;;;;;;6.70;2.90;;;27.10;45.70;;;;;;5054556;28;20215;-90
2022/07/28 12:15:33;;;;;;;6.00;2.80;;;27.00;46.00;;;;;;5043582;28;20212;-94
2022/07/28 12:18:03;;;;;;;8.47;4.17;;;27.00;46.20;;;;;;5043327;28;20216;-94
2022/07/28 12:20:33;;;;;;;9.87;4.13;;;27.00;46.20;;;;;;5048347;28;20224;-93
2022/07/28 12:23:03;;;;;;;6.57;3.33;;;27.00;46.40;;;;;;5042392;28;20251;-92
2022/07/28 12:25:40;;;;;;;12.47;4.70;;;27.00;46.50;;;;;;5041003;28;20229;-92
2022/07/28 12:28:18;;;;;;;10.10;3.93;;;27.10;46.30;;;;;;5052704;28;20277;-91
2022/07/28 12:30:45;;;;;;;6.77;3.03;;;27.10;45.80;;;;;;5063658;28;20207;-92
2022/07/28 12:33:23;;;;;;;7.93;2.83;;;27.10;46.40;;;;;;5058115;28;20222;-94
2022/07/28 12:35:52;;;;;;;8.13;3.00;;;27.20;45.40;;;;;;5055842;28;20196;-95
2022/07/28 12:38:21;;;;;;;5.73;2.30;;;27.30;46.00;;;;;;5056869;28;20254;-95
2022/07/28 12:40:52;;;;;;;5.90;2.70;;;27.40;46.00;;;;;;5054166;28;20680;-93
2022/07/28 12:43:28;;;;;;;7.20;3.50;;;27.50;46.10;;;;;;5053530;28;20208;-93
2022/07/28 12:48:40;;;;;;;7.33;2.80;;;27.70;45.80;;;;;;5040646;28;20313;-92
2022/07/28 12:51:07;;;;;;;4.37;2.33;;;27.90;45.60;;;;;;5035948;28;20201;-94
2022/07/28 12:53:50;;;;;;;8.40;3.10;;;27.90;45.20;;;;;;5036210;28;20235;-93
2022/07/28 12:56:22;;;;;;;5.53;2.30;;;28.10;45.10;;;;;;5040005;28;20205;-94
2022/07/28 12:59:02;;;;;;;7.13;3.13;;;28.20;45.10;;;;;;5044849;28;20677;-92
2022/07/28 13:01:51;;;;;;;5.17;2.83;;;28.30;45.10;;;;;;5042664;28;20538;-93
2022/07/28 13:04:41;;;;;;;8.10;3.30;;;28.40;44.10;;;;;;5040936;28;20201;-93
2022/07/28 13:07:12;;;;;;;6.70;2.77;;;28.50;44.20;;;;;;5042221;28;20216;-92
2022/07/28 13:09:44;;;;;;;4.70;2.97;;;28.70;44.80;;;;;;5043401;28;20682;-92
2022/07/28 13:12:32;;;;;;;6.67;3.13;;;28.80;43.80;;;;;;5043303;28;20300;-93
2022/07/28 13:15:15;;;;;;;4.50;2.50;;;28.90;44.20;;;;;;5042495;28;20201;-93
2022/07/28 13:17:55;;;;;;;6.63;3.13;;;29.00;43.90;;;;;;5053066;28;20223;-93
2022/07/28 13:20:47;;;;;;;9.43;3.87;;;29.10;43.30;;;;;;5048534;28;20203;-94
2022/07/28 13:23:14;;;;;;;9.57;3.90;;;29.20;42.90;;;;;;5049868;28;20269;-94
2022/07/28 13:25:41;;;;;;;10.83;3.43;;;29.30;43.40;;;;;;5034013;28;20287;-92
2022/07/28 13:28:24;;;;;;;7.97;3.70;;;29.30;43.30;;;;;;5050009;28;20253;-93